WeatherOLA & Area Weather Station Summaries and History

Weather history for Indianola, Kingston, Poulsbo, Bainbridge Island, Silverdale other area weather stations. Select a station for detailed historical weather information of any date and time in five minute intervals. Great for looking up the timing of interesting weather events that are closest to you.

Station Historical Data
 
Daily Summary for June 26, 2017 Units:  English    Metric   Both
« Previous Day
Next Day »
Daily Weekly Monthly Yearly Custom
  Current: High: Low: Average:
Temperature: 67.3 °F 72.1 °F 57.9 °F 65.1 °F
Dew Point: 58.3 °F 60.3 °F 53.8 °F 57.6 °F
Humidity: 73% 92% 65% 77%
Wind Speed: 0mph 10.4mph 0mph 1.2mph
Wind Gust: 0mph 10.4mph - -
WindCalm - - South
Pressure: 29.9 in 29.9 in 29.8 in -
Precipitation: 0 in      
Historical Graphs
 
 
Tabular Data for June 26, 2017
Time Temperature Dew Point Pressure Wind Wind Speed Wind Gust Humidity Rainfall Rate (Hourly) solar Conditions
00:00 65.8 °F 53.8 °F 29.8 in Calm     65% 0 in WeatherDisplay:10.37 W/m2 CLR
00:05 66 °F 55.2 °F 29.8 in Calm     68% 0 in WeatherDisplay:10.37 W/m2 CLR
00:10 66 °F 54.9 °F 29.8 in Calm     67% 0 in WeatherDisplay:10.37 W/m2 CLR
00:15 66.2 °F 54.1 °F 29.8 in Calm     65% 0 in WeatherDisplay:10.37 W/m2 CLR
00:20 66.4 °F 54.1 °F 29.8 in Calm     65% 0 in WeatherDisplay:10.37 W/m2 CLR
00:25 66.4 °F 55 °F 29.8 in ESE 1.2 mph 1.2 mph 67% 0 in WeatherDisplay:10.37 W/m2 CLR
00:30 66.4 °F 55.4 °F 29.8 in Calm     68% 0 in WeatherDisplay:10.37 W/m2 CLR
00:35 66 °F 54.3 °F 29.8 in Calm     66% 0 in WeatherDisplay:10.37 W/m2 CLR
00:40 66 °F 54.7 °F 29.8 in Calm     67% 0 in WeatherDisplay:10.37 W/m2 CLR
00:45 65.8 °F 54.7 °F 29.8 in Calm     67% 0 in WeatherDisplay:10.37 W/m2 CLR
00:50 65.8 °F 54.5 °F 29.8 in Calm     67% 0 in WeatherDisplay:10.37 W/m2 CLR
00:55 65.7 °F 55.2 °F 29.8 in ESE 1.2 mph   69% 0 in WeatherDisplay:10.37 W/m2 CLR
01:00 65.5 °F 55.8 °F 29.8 in Calm     71% 0 in WeatherDisplay:10.37 W/m2 CLR
01:05 65.3 °F 55.9 °F 29.8 in Calm     72% 0 in WeatherDisplay:10.37 W/m2 CLR
01:10 65.1 °F 56.3 °F 29.8 in Calm     73% 0 in WeatherDisplay:10.37 W/m2 CLR
01:15 64.9 °F 56.1 °F 29.8 in ESE 1.2 mph   73% 0 in WeatherDisplay:10.37 W/m2 CLR
01:20 64.8 °F 55.9 °F 29.8 in ESE 1.2 mph 1.2 mph 73% 0 in WeatherDisplay:10.37 W/m2 CLR
01:25 64.8 °F 56.7 °F 29.8 in ESE 1.2 mph   75% 0 in WeatherDisplay:10.37 W/m2 CLR
01:30 64.6 °F 56.5 °F 29.8 in Calm     75% 0 in WeatherDisplay:10.37 W/m2 CLR
01:35 64.6 °F 57 °F 29.8 in Calm     77% 0 in WeatherDisplay:10.37 W/m2 CLR
01:40 64.2 °F 56.8 °F 29.8 in Calm     77% 0 in WeatherDisplay:10.37 W/m2 CLR
01:45 64 °F 57 °F 29.8 in Calm     78% 0 in WeatherDisplay:10.37 W/m2 CLR
01:50 63.9 °F 57.6 °F 29.8 in ESE 1.2 mph 1.2 mph 80% 0 in WeatherDisplay:10.37 W/m2 CLR
01:55 63.7 °F 57.7 °F 29.8 in Calm     81% 0 in WeatherDisplay:10.37 W/m2 CLR
02:00 63.3 °F 57.7 °F 29.8 in ESE 1.2 mph 1.2 mph 82% 0 in WeatherDisplay:10.37 W/m2 CLR
02:05 63.1 °F 57.6 °F 29.9 in Calm     82% 0 in WeatherDisplay:10.37 W/m2 CLR
02:10 63 °F 57.4 °F 29.9 in Calm     82% 0 in WeatherDisplay:10.37 W/m2 CLR
02:15 62.8 °F 57.6 °F 29.9 in Calm     83% 0 in WeatherDisplay:10.37 W/m2 CLR
02:20 62.6 °F 57.4 °F 29.9 in Calm     83% 0 in WeatherDisplay:10.37 W/m2 CLR
02:25 62.4 °F 57.2 °F 29.8 in Calm     83% 0 in WeatherDisplay:10.37 W/m2 CLR
02:30 62.2 °F 57.4 °F 29.8 in Calm     84% 0 in WeatherDisplay:10.37 W/m2 CLR
02:35 62.1 °F 57 °F 29.9 in ESE 1.2 mph   84% 0 in WeatherDisplay:10.37 W/m2 CLR
02:40 61.9 °F 57.2 °F 29.9 in Calm     85% 0 in WeatherDisplay:10.37 W/m2 CLR
02:46 61.7 °F 57 °F 29.8 in ESE 1.2 mph 1.2 mph 85% 0 in WeatherDisplay:10.37 W/m2 CLR
02:51 61.3 °F 56.8 °F 29.8 in ESE 1 mph   85% 0 in WeatherDisplay:10.37 W/m2 CLR
02:56 61.2 °F 56.7 °F 29.9 in NW 1.2 mph   85% 0 in WeatherDisplay:10.37 W/m2 CLR
03:01 61 °F 56.7 °F 29.9 in NW 2 mph 2 mph 86% 0 in WeatherDisplay:10.37 W/m2 CLR
03:03 60.6 °F 56.5 °F 29.9 in South 2.3 mph 2.3 mph 86% 0 in WeatherDisplay:10.37 W/m2 CLR
03:08 60.3 °F 56.1 °F 29.9 in West 2.3 mph 2.3 mph 86% 0 in WeatherDisplay:10.37 W/m2 CLR
03:13 59.9 °F 55.9 °F 29.9 in Calm   0.1 mph 87% 0 in WeatherDisplay:10.37 W/m2 CLR
03:18 59.9 °F 55.9 °F 29.9 in Calm     87% 0 in WeatherDisplay:10.37 W/m2 CLR
03:23 59.9 °F 56.3 °F 29.9 in Calm     88% 0 in WeatherDisplay:10.37 W/m2 CLR
03:28 59.7 °F 56.1 °F 29.9 in WSW 1.2 mph   88% 0 in WeatherDisplay:10.37 W/m2 CLR
03:33 59.7 °F 56.7 °F 29.9 in WSW 1.2 mph 1.2 mph 89% 0 in WeatherDisplay:10.37 W/m2 CLR
03:38 59.7 °F 56.7 °F 29.9 in Calm     89% 0 in WeatherDisplay:10.37 W/m2 CLR
03:43 59.7 °F 56.5 °F 29.9 in Calm     89% 0 in WeatherDisplay:10.37 W/m2 CLR
03:48 59.5 °F 56.3 °F 29.9 in Calm     89% 0 in WeatherDisplay:10.37 W/m2 CLR
03:53 59.5 °F 56.3 °F 29.9 in Calm     89% 0 in WeatherDisplay:10.37 W/m2 CLR
03:58 59.4 °F 56.1 °F 29.9 in Calm     89% 0 in WeatherDisplay:10.37 W/m2 CLR
04:03 59.2 °F 55.9 °F 29.9 in WSW 1.2 mph   89% 0 in WeatherDisplay:10.37 W/m2 CLR
04:08 59.2 °F 56.1 °F 29.9 in WSW 1.2 mph   90% 0 in WeatherDisplay:10.37 W/m2 CLR
04:13 59 °F 56.1 °F 29.9 in WSW 1.2 mph 1.2 mph 90% 0 in WeatherDisplay:10.37 W/m2 CLR
04:18 58.8 °F 55.9 °F 29.9 in WSW 1.2 mph   90% 0 in WeatherDisplay:10.37 W/m2 CLR
04:23 58.8 °F 55.9 °F 29.9 in Calm     90% 0 in WeatherDisplay:10.37 W/m2 CLR
04:28 58.6 °F 55.8 °F 29.9 in WSW 1.2 mph 1.2 mph 90% 0 in WeatherDisplay:10.37 W/m2 CLR
04:33 58.6 °F 55.8 °F 29.9 in Calm     90% 0 in WeatherDisplay:10.37 W/m2 CLR
04:38 58.5 °F 55.6 °F 29.9 in Calm     90% 0 in WeatherDisplay:10.37 W/m2 CLR
04:43 58.3 °F 55.4 °F 29.9 in Calm     90% 0 in WeatherDisplay:10.37 W/m2 CLR
04:48 58.3 °F 55.6 °F 29.9 in Calm     91% 0 in WeatherDisplay:10.37 W/m2 CLR
04:53 58.1 °F 55.6 °F 29.9 in Calm     91% 0 in WeatherDisplay:10.37 W/m2 CLR
04:58 57.9 °F 55.4 °F 29.9 in Calm     91% 0 in WeatherDisplay:10.37 W/m2 CLR
05:03 57.9 °F 55.2 °F 29.9 in Calm     91% 0 in WeatherDisplay:10.37 W/m2 CLR
05:08 57.9 °F 55.2 °F 29.9 in Calm     91% 0 in WeatherDisplay:10.37 W/m2 CLR
05:13 57.9 °F 55.2 °F 29.9 in Calm     91% 0 in WeatherDisplay:10.37 W/m2 CLR
05:18 57.9 °F 55.6 °F 29.9 in Calm     92% 0 in WeatherDisplay:10.37 W/m2 CLR
05:23 57.9 °F 55.8 °F 29.9 in Calm     92% 0 in WeatherDisplay:10.37 W/m2 CLR
05:27 57.9 °F 55.8 °F 29.9 in Calm     92% 0 in WeatherDisplay:10.37 W/m2 CLR
05:32 58.1 °F 55.8 °F 29.9 in Calm     92% 0 in WeatherDisplay:10.37 W/m2 CLR
05:37 58.1 °F 55.6 °F 29.9 in Calm     91% 0 in WeatherDisplay:10.37 W/m2 CLR
05:42 58.1 °F 55.6 °F 29.9 in Calm     91% 0 in WeatherDisplay:10.37 W/m2 CLR
05:47 58.3 °F 55.6 °F 29.9 in Calm     91% 0 in WeatherDisplay:10.37 W/m2 CLR
05:52 58.3 °F 55.9 °F 29.9 in Calm     92% 0 in WeatherDisplay:10.37 W/m2 CLR
05:57 58.3 °F 55.9 °F 29.9 in Calm     92% 0 in WeatherDisplay:10.37 W/m2 CLR
06:02 58.5 °F 55.8 °F 29.9 in WSW 1.2 mph   91% 0 in WeatherDisplay:10.37 W/m2 CLR
06:07 58.5 °F 55.8 °F 29.9 in Calm     91% 0 in WeatherDisplay:10.37 W/m2 CLR
06:12 58.5 °F 55.8 °F 29.9 in Calm     91% 0 in WeatherDisplay:10.37 W/m2 CLR
06:17 58.5 °F 55.8 °F 29.9 in Calm     91% 0 in WeatherDisplay:10.37 W/m2 CLR
06:22 58.5 °F 55.8 °F 29.9 in North 2.3 mph 2.3 mph 91% 0 in WeatherDisplay:10.37 W/m2 CLR
06:28 58.5 °F 55.6 °F 29.9 in Calm     90% 0 in WeatherDisplay:10.37 W/m2 CLR
06:33 58.5 °F 55.8 °F 29.9 in Calm     91% 0 in WeatherDisplay:10.37 W/m2 CLR
06:38 58.5 °F 55.8 °F 29.9 in Calm     91% 0 in WeatherDisplay:10.37 W/m2 CLR
06:43 58.5 °F 55.6 °F 29.9 in North 1.2 mph   90% 0 in WeatherDisplay:10.37 W/m2 CLR
06:48 58.6 °F 55.9 °F 29.9 in Calm     91% 0 in WeatherDisplay:10.37 W/m2 CLR
06:49 58.6 °F 55.9 °F 29.9 in Calm     91% 0 in WeatherDisplay:10.37 W/m2 CLR
06:54 58.8 °F 55.9 °F 29.9 in North 1.2 mph   90% 0 in WeatherDisplay:10.37 W/m2 CLR
06:59 58.8 °F 55.9 °F 29.9 in North 1.2 mph   90% 0 in WeatherDisplay:10.37 W/m2 CLR
07:04 59.2 °F 56.1 °F 29.9 in NNW 1.2 mph   90% 0 in WeatherDisplay:10.37 W/m2 CLR
07:09 59.2 °F 55.9 °F 29.9 in NNW 2.3 mph 2.3 mph 89% 0 in WeatherDisplay:10.37 W/m2 CLR
07:14 59.4 °F 56.5 °F 29.9 in Calm     90% 0 in WeatherDisplay:10.37 W/m2 CLR
07:19 59.4 °F 56.1 °F 29.9 in NNW 1 mph   89% 0 in WeatherDisplay:10.37 W/m2 CLR
07:24 59.5 °F 56.3 °F 29.9 in Calm     89% 0 in WeatherDisplay:10.37 W/m2 CLR
07:29 59.5 °F 56.5 °F 29.9 in Calm     89% 0 in WeatherDisplay:10.37 W/m2 CLR
07:34 59.9 °F 56.7 °F 29.9 in NNW 1.2 mph   89% 0 in WeatherDisplay:10.37 W/m2 CLR
07:39 59.9 °F 56.7 °F 29.9 in Calm     89% 0 in WeatherDisplay:10.37 W/m2 CLR
07:44 59.9 °F 56.3 °F 29.9 in Calm     88% 0 in WeatherDisplay:10.37 W/m2 CLR
07:49 60.3 °F 56.7 °F 29.9 in Calm     88% 0 in WeatherDisplay:10.37 W/m2 CLR
07:54 60.4 °F 56.8 °F 29.9 in Calm   0.1 mph 88% 0 in WeatherDisplay:10.37 W/m2 CLR
07:59 60.6 °F 56.8 °F 29.9 in Calm     87% 0 in WeatherDisplay:10.37 W/m2 CLR
08:04 60.8 °F 56.8 °F 29.9 in Calm     87% 0 in WeatherDisplay:10.37 W/m2 CLR
08:09 61 °F 57 °F 29.9 in Calm     87% 0 in WeatherDisplay:10.37 W/m2 CLR
08:14 61 °F 56.8 °F 29.9 in NNW 1.2 mph 1.2 mph 86% 0 in WeatherDisplay:10.37 W/m2 CLR
08:19 61.2 °F 56.8 °F 29.9 in Calm     86% 0 in WeatherDisplay:10.37 W/m2 CLR
08:25 61 °F 56.8 °F 29.9 in Calm     86% 0 in WeatherDisplay:10.37 W/m2 CLR
08:30 61.2 °F 57.2 °F 29.9 in NNW 1.2 mph   87% 0 in WeatherDisplay:10.37 W/m2 CLR
08:31 61.2 °F 57.4 °F 29.9 in Calm     87% 0 in WeatherDisplay:10.37 W/m2 CLR
08:36 61.3 °F 57.2 °F 29.9 in East 1.2 mph 1.2 mph 86% 0 in WeatherDisplay:10.37 W/m2 CLR
08:42 61.7 °F 57.6 °F 29.9 in Calm     86% 0 in WeatherDisplay:10.37 W/m2 CLR
08:47 62.1 °F 57.7 °F 29.9 in ENE 1.2 mph   86% 0 in WeatherDisplay:10.37 W/m2 CLR
08:52 62.1 °F 57.9 °F 29.9 in Calm     86% 0 in WeatherDisplay:10.37 W/m2 CLR
08:57 62.2 °F 57.6 °F 29.9 in SSW 2.3 mph   85% 0 in WeatherDisplay:10.37 W/m2 CLR
09:02 62.2 °F 57.4 °F 29.9 in SSW 1.2 mph 1.2 mph 84% 0 in WeatherDisplay:10.37 W/m2 CLR
09:07 62.4 °F 57.6 °F 29.9 in SSW 1.2 mph   84% 0 in WeatherDisplay:10.37 W/m2 CLR
09:12 62.4 °F 57.6 °F 29.9 in SW 2.3 mph 2.3 mph 84% 0 in WeatherDisplay:10.37 W/m2 CLR
09:22 62.4 °F 57.2 °F 29.9 in South 1.2 mph   83% 0 in WeatherDisplay:10.37 W/m2 CLR
09:27 62.2 °F 56.7 °F 29.9 in SSE 1.2 mph   82% 0 in WeatherDisplay:10.37 W/m2 CLR
09:32 62.2 °F 57 °F 29.9 in SSE 1.2 mph 1.2 mph 83% 0 in WeatherDisplay:10.37 W/m2 CLR
09:37 62.2 °F 57 °F 29.9 in SE 1.2 mph 1.2 mph 83% 0 in WeatherDisplay:10.37 W/m2 CLR
09:42 62.1 °F 56.8 °F 29.9 in SSW 1.2 mph   83% 0 in WeatherDisplay:10.37 W/m2 CLR
09:47 62.2 °F 57.4 °F 29.9 in SSW 1.2 mph 1.2 mph 84% 0 in WeatherDisplay:10.37 W/m2 CLR
09:52 62.2 °F 56.7 °F 29.9 in SSW 1.2 mph 1.2 mph 82% 0 in WeatherDisplay:10.37 W/m2 CLR
09:57 62.2 °F 57 °F 29.9 in Calm     83% 0 in WeatherDisplay:10.37 W/m2 CLR
10:02 62.1 °F 56.8 °F 29.9 in SW 1.2 mph 1.2 mph 83% 0 in WeatherDisplay:10.37 W/m2 CLR
10:07 62.1 °F 57.2 °F 29.9 in SW 1.2 mph 1.2 mph 84% 0 in WeatherDisplay:10.37 W/m2 CLR
10:12 62.4 °F 57.6 °F 29.9 in Calm     84% 0 in WeatherDisplay:10.37 W/m2 CLR
10:17 63.3 °F 57.9 °F 29.9 in ENE 3.5 mph 3.5 mph 83% 0 in WeatherDisplay:10.37 W/m2 CLR
10:22 64 °F 58.1 °F 29.9 in NE 1 mph 1 mph 81% 0 in WeatherDisplay:10.37 W/m2 CLR
10:27 64.8 °F 58.5 °F 29.9 in SW 1.2 mph 1.2 mph 80% 0 in WeatherDisplay:10.37 W/m2 CLR
10:32 65.3 °F 58.6 °F 29.9 in SW 1 mph   79% 0 in WeatherDisplay:10.37 W/m2 CLR
10:37 65.7 °F 58.6 °F 29.9 in SSE 1.2 mph 1.2 mph 78% 0 in WeatherDisplay:10.37 W/m2 CLR
10:42 66 °F 58.6 °F 29.9 in SSE 1.2 mph 1.2 mph 77% 0 in WeatherDisplay:10.37 W/m2 CLR
10:47 66.7 °F 59 °F 29.9 in Calm     76% 0 in WeatherDisplay:10.37 W/m2 CLR
10:48 67.1 °F 59.4 °F 29.9 in West 1.2 mph 1.2 mph 76% 0 in WeatherDisplay:10.37 W/m2 CLR
10:53 68.2 °F 59.2 °F 29.9 in SSE 1.2 mph 1.2 mph 73% 0 in WeatherDisplay:10.37 W/m2 CLR
10:58 68.7 °F 59.4 °F 29.9 in SSE 2.3 mph 2.3 mph 72% 0 in WeatherDisplay:10.37 W/m2 CLR
11:03 69.3 °F 59 °F 29.9 in SW 3.5 mph 3.5 mph 70% 0 in WeatherDisplay:10.37 W/m2 CLR
11:04 69.3 °F 59.5 °F 29.9 in SW 3.5 mph 3.5 mph 71% 0 in WeatherDisplay:10.37 W/m2 CLR
11:09 69.4 °F 59.7 °F 29.9 in ENE 1.2 mph 1.2 mph 71% 0 in WeatherDisplay:10.37 W/m2 CLR
11:14 69.4 °F 59.4 °F 29.9 in SSE 2 mph 2 mph 70% 0 in WeatherDisplay:10.37 W/m2 CLR
11:19 69.4 °F 59.2 °F 29.9 in West 3.5 mph 3.5 mph 70% 0 in WeatherDisplay:10.37 W/m2 CLR
11:24 69.4 °F 59.4 °F 29.9 in North 3 mph 3 mph 70% 0 in WeatherDisplay:10.37 W/m2 CLR
11:29 69.6 °F 59.2 °F 29.9 in NE 3.5 mph 3.5 mph 69% 0 in WeatherDisplay:10.37 W/m2 CLR
11:34 70 °F 59.4 °F 29.9 in South 2.3 mph 2.3 mph 69% 0 in WeatherDisplay:10.37 W/m2 CLR
11:39 69.6 °F 59.4 °F 29.9 in West 2.3 mph 2.3 mph 70% 0 in WeatherDisplay:10.37 W/m2 CLR
11:44 69.3 °F 59 °F 29.9 in ENE 2.3 mph 2.3 mph 70% 0 in WeatherDisplay:10.37 W/m2 CLR
11:49 69.3 °F 59.5 °F 29.9 in WNW 2.3 mph 2.3 mph 71% 0 in WeatherDisplay:10.37 W/m2 CLR
11:54 69.4 °F 59.2 °F 29.9 in West 1 mph 1.2 mph 70% 0 in WeatherDisplay:10.37 W/m2 CLR
11:59 69.8 °F 59.5 °F 29.9 in ESE 2.3 mph 2.3 mph 70% 0 in WeatherDisplay:10.37 W/m2 CLR
12:04 70 °F 59.7 °F 29.9 in ENE 1.2 mph   70% 0 in WeatherDisplay:10.37 W/m2 CLR
12:09 70.2 °F 59.5 °F 29.9 in ESE 3.5 mph 3.5 mph 69% 0 in WeatherDisplay:10.37 W/m2 CLR
12:14 70.2 °F 59.2 °F 29.9 in West 1.2 mph 2.8 mph 68% 0 in WeatherDisplay:10.37 W/m2 CLR
12:19 69.4 °F 59.2 °F 29.9 in East 2.3 mph 2.3 mph 70% 0 in WeatherDisplay:10.37 W/m2 CLR
12:25 69.4 °F 59.4 °F 29.9 in WNW 3.5 mph 3.5 mph 70% 0 in WeatherDisplay:10.37 W/m2 CLR
12:30 69.8 °F 59.2 °F 29.9 in NW 3.5 mph 3.5 mph 69% 0 in WeatherDisplay:10.37 W/m2 CLR
12:35 69.8 °F 59.2 °F 29.9 in WSW 10.4 mph 10.4 mph 69% 0 in WeatherDisplay:10.37 W/m2 CLR
12:40 70.2 °F 59.5 °F 29.9 in East 4 mph 4 mph 69% 0 in WeatherDisplay:10.37 W/m2 CLR
12:45 70.5 °F 59 °F 29.9 in West 4 mph 4 mph 67% 0 in WeatherDisplay:10.37 W/m2 CLR
12:51 70.2 °F 59 °F 29.9 in SW 3 mph 3 mph 68% 0 in WeatherDisplay:10.37 W/m2 CLR
12:56 69.4 °F 58.5 °F 29.9 in ESE 2.3 mph 2.3 mph 68% 0 in WeatherDisplay:10.37 W/m2 CLR
13:01 69.1 °F 58.8 °F 29.9 in South 2.3 mph 2.3 mph 70% 0 in WeatherDisplay:10.37 W/m2 CLR
13:06 69.1 °F 58.8 °F 29.9 in WNW 4 mph 4 mph 70% 0 in WeatherDisplay:10.37 W/m2 CLR
13:11 68.7 °F 59 °F 29.9 in NW 1 mph   71% 0 in WeatherDisplay:10.37 W/m2 CLR
13:16 68.9 °F 58.6 °F 29.9 in SSW 1.2 mph 1.2 mph 70% 0 in WeatherDisplay:10.37 W/m2 CLR
13:21 68.5 °F 58.8 °F 29.9 in WNW 3.5 mph 3.5 mph 71% 0 in WeatherDisplay:10.37 W/m2 CLR
13:26 68.5 °F 59.2 °F 29.9 in ESE 2.3 mph 2.3 mph 72% 0 in WeatherDisplay:10.37 W/m2 CLR
13:31 68.4 °F 58.5 °F 29.9 in SW 2.3 mph 2.3 mph 71% 0 in WeatherDisplay:10.37 W/m2 CLR
13:36 68 °F 58.6 °F 29.9 in SE 1.2 mph 1.2 mph 72% 0 in WeatherDisplay:10.37 W/m2 CLR
13:41 68.2 °F 59.2 °F 29.9 in SE 1.2 mph   73% 0 in WeatherDisplay:10.37 W/m2 CLR
13:46 68.4 °F 58.8 °F 29.9 in SE 2.3 mph 2.3 mph 72% 0 in WeatherDisplay:10.37 W/m2 CLR
13:51 67.8 °F 58.8 °F 29.9 in SE 1.2 mph 1.2 mph 73% 0 in WeatherDisplay:10.37 W/m2 CLR
13:56 68.4 °F 58.8 °F 29.9 in SE 1.2 mph 1.2 mph 72% 0 in WeatherDisplay:10.37 W/m2 CLR
14:01 68.5 °F 59.2 °F 29.9 in SE 1.2 mph 1.2 mph 72% 0 in WeatherDisplay:10.37 W/m2 CLR
14:06 68.7 °F 58.6 °F 29.9 in North 4 mph 4 mph 70% 0 in WeatherDisplay:10.37 W/m2 CLR
14:11 69.1 °F 59.4 °F 29.9 in SW 1.2 mph 1.2 mph 71% 0 in WeatherDisplay:10.37 W/m2 CLR
14:16 68.9 °F 58.6 °F 29.9 in SW 1.2 mph 1.2 mph 70% 0 in WeatherDisplay:10.37 W/m2 CLR
14:21 68.5 °F 58.6 °F 29.9 in ENE 4 mph 4 mph 71% 0 in WeatherDisplay:10.37 W/m2 CLR
14:26 68 °F 58.3 °F 29.9 in NE 1.2 mph   71% 0 in WeatherDisplay:10.37 W/m2 CLR
14:31 67.6 °F 58.6 °F 29.9 in ENE 1.2 mph   73% 0 in WeatherDisplay:10.37 W/m2 CLR
14:36 68 °F 59 °F 29.9 in East 2.3 mph 2.3 mph 73% 0 in WeatherDisplay:10.37 W/m2 CLR
14:41 68.5 °F 59.5 °F 29.9 in ESE 2.3 mph 2.3 mph 73% 0 in WeatherDisplay:10.37 W/m2 CLR
14:46 69.1 °F 59.2 °F 29.9 in NE 2.3 mph 2.3 mph 71% 0 in WeatherDisplay:10.37 W/m2 CLR
14:51 69.1 °F 59.7 °F 29.9 in SSW 1.2 mph 1.2 mph 72% 0 in WeatherDisplay:10.37 W/m2 CLR
14:56 69.4 °F 59.4 °F 29.9 in WNW 1.2 mph 1.2 mph 70% 0 in WeatherDisplay:10.37 W/m2 CLR
15:01 69.3 °F 59.2 °F 29.9 in Calm     70% 0 in WeatherDisplay:10.37 W/m2 CLR
15:06 69.3 °F 59.4 °F 29.9 in WSW 1.2 mph 1.2 mph 71% 0 in WeatherDisplay:10.37 W/m2 CLR
15:11 69.8 °F 60.1 °F 29.9 in WSW 1.2 mph 1.2 mph 71% 0 in WeatherDisplay:10.37 W/m2 CLR
15:16 70.3 °F 59.5 °F 29.9 in WSW 2.3 mph 2.3 mph 69% 0 in WeatherDisplay:10.37 W/m2 CLR
15:21 70.3 °F 59.5 °F 29.9 in WSW 1.2 mph 1.2 mph 69% 0 in WeatherDisplay:10.37 W/m2 CLR
15:26 70.5 °F 59.5 °F 29.9 in SW 1.2 mph 1.2 mph 68% 0 in WeatherDisplay:10.37 W/m2 CLR
15:31 70.7 °F 59.5 °F 29.9 in SW 1.2 mph 1.2 mph 68% 0 in WeatherDisplay:10.37 W/m2 CLR
15:36 71.1 °F 59.5 °F 29.9 in SSE 2.3 mph 2.3 mph 67% 0 in WeatherDisplay:10.37 W/m2 CLR
15:41 71.1 °F 60.1 °F 29.9 in SSW 1.2 mph 1.2 mph 68% 0 in WeatherDisplay:10.37 W/m2 CLR
15:46 70.9 °F 59.7 °F 29.9 in SSW 1.2 mph 1.2 mph 68% 0 in WeatherDisplay:10.37 W/m2 CLR
15:51 71.1 °F 59.5 °F 29.9 in SSW 1.2 mph 1.2 mph 67% 0 in WeatherDisplay:10.37 W/m2 CLR
15:56 71.6 °F 60.1 °F 29.9 in WSW 1.2 mph 1.2 mph 67% 0 in WeatherDisplay:10.37 W/m2 CLR
16:01 72 °F 60.3 °F 29.9 in WSW 1.2 mph 1.2 mph 67% 0 in WeatherDisplay:10.37 W/m2 CLR
16:06 72 °F 60.1 °F 29.9 in NNE 3.5 mph 3.5 mph 66% 0 in WeatherDisplay:10.37 W/m2 CLR
16:11 72.1 °F 60.3 °F 29.9 in NNE 3.5 mph 3.5 mph 66% 0 in WeatherDisplay:10.37 W/m2 CLR
16:16 72.1 °F 59.7 °F 29.9 in North 1.2 mph 1.2 mph 65% 0 in WeatherDisplay:10.37 W/m2 CLR
16:21 72 °F 59.9 °F 29.9 in East 2 mph 2 mph 66% 0 in WeatherDisplay:10.37 W/m2 CLR
16:27 71.8 °F 60.3 °F 29.9 in East 1.2 mph 1.2 mph 67% 0 in WeatherDisplay:10.37 W/m2 CLR
16:32 72 °F 60.3 °F 29.9 in East 1.2 mph 1.2 mph 67% 0 in WeatherDisplay:10.37 W/m2 CLR
16:37 72 °F 60.3 °F 29.9 in ENE 2 mph 2 mph 67% 0 in WeatherDisplay:10.37 W/m2 CLR
16:42 72 °F 60.3 °F 29.9 in North 1.2 mph   67% 0 in WeatherDisplay:10.37 W/m2 CLR
16:47 71.8 °F 59.4 °F 29.9 in SE 2 mph 2 mph 65% 0 in WeatherDisplay:10.37 W/m2 CLR
16:52 71.8 °F 59.4 °F 29.9 in NNE 3.5 mph 3.5 mph 65% 0 in WeatherDisplay:10.37 W/m2 CLR
16:57 71.6 °F 60.1 °F 29.9 in West 1 mph 1 mph 67% 0 in WeatherDisplay:10.37 W/m2 CLR
17:02 71.4 °F 59.5 °F 29.9 in NNW 3.5 mph 3.5 mph 66% 0 in WeatherDisplay:10.37 W/m2 CLR
17:07 71.2 °F 59.7 °F 29.9 in SW 3.5 mph 3.5 mph 67% 0 in WeatherDisplay:10.37 W/m2 CLR
17:12 71.2 °F 59.7 °F 29.9 in West 1.2 mph 1.2 mph 67% 0 in WeatherDisplay:10.37 W/m2 CLR
17:17 71.1 °F 59.5 °F 29.9 in NE 3.5 mph 3.5 mph 67% 0 in WeatherDisplay:10.37 W/m2 CLR
17:22 71.1 °F 59.9 °F 29.9 in WSW 1.2 mph 1.2 mph 68% 0 in WeatherDisplay:10.37 W/m2 CLR
17:27 70.7 °F 59.5 °F 29.9 in NW 4.6 mph 4.6 mph 68% 0 in WeatherDisplay:10.37 W/m2 CLR
17:32 70.3 °F 58.8 °F 29.9 in NNE 5.8 mph 5.8 mph 67% 0 in WeatherDisplay:10.37 W/m2 CLR
17:33 70.3 °F 58.5 °F 29.9 in NNE 5.8 mph 5.8 mph 66% 0 in WeatherDisplay:10.37 W/m2 CLR
17:38 70 °F 59 °F 29.9 in NW 1.2 mph   68% 0 in WeatherDisplay:10.37 W/m2 CLR
17:43 69.8 °F 58.3 °F 29.9 in North 2.3 mph 2.3 mph 67% 0 in WeatherDisplay:10.37 W/m2 CLR
17:48 69.4 °F 58.5 °F 29.9 in North 9.2 mph   68% 0 in WeatherDisplay:10.37 W/m2 CLR
17:53 69.4 °F 58.5 °F 29.9 in Calm   0.1 mph 68% 0 in WeatherDisplay:10.37 W/m2 CLR
17:58 69.3 °F 57.7 °F 29.9 in WSW 3.5 mph 3.5 mph 67% 0 in WeatherDisplay:10.37 W/m2 CLR
18:03 69.1 °F 57.9 °F 29.9 in ENE 2.3 mph 2.3 mph 68% 0 in WeatherDisplay:10.37 W/m2 CLR
18:08 68.9 °F 57.6 °F 29.9 in South 1.2 mph 1.2 mph 67% 0 in WeatherDisplay:10.37 W/m2 CLR
18:13 68.9 °F 57.9 °F 29.9 in Calm   0.1 mph 68% 0 in WeatherDisplay:10.37 W/m2 CLR
18:18 68.9 °F 57.9 °F 29.9 in NW 1.2 mph 1.2 mph 68% 0 in WeatherDisplay:10.37 W/m2 CLR
18:23 68.7 °F 58.3 °F 29.9 in NNE 2.3 mph   69% 0 in WeatherDisplay:10.37 W/m2 CLR
18:28 68.7 °F 57.7 °F 29.9 in WSW 1.2 mph   68% 0 in WeatherDisplay:10.37 W/m2 CLR
18:33 68.5 °F 57.9 °F 29.9 in WSW 1.2 mph 1.2 mph 69% 0 in WeatherDisplay:10.37 W/m2 CLR
18:38 68.5 °F 57.9 °F 29.9 in WSW 1.2 mph   69% 0 in WeatherDisplay:10.37 W/m2 CLR
18:43 68.4 °F 58.3 °F 29.9 in Calm     70% 0 in WeatherDisplay:10.37 W/m2 CLR
18:48 68.4 °F 58.1 °F 29.9 in Calm     70% 0 in WeatherDisplay:10.37 W/m2 CLR
18:53 68.4 °F 58.5 °F 29.9 in WSW 2.3 mph   71% 0 in WeatherDisplay:10.37 W/m2 CLR
18:58 68.2 °F 57.9 °F 29.9 in Calm   0.3 mph 70% 0 in WeatherDisplay:10.37 W/m2 CLR
19:03 68.2 °F 57.9 °F 29.9 in Calm     70% 0 in WeatherDisplay:10.37 W/m2 CLR
19:08 68.2 °F 58.3 °F 29.9 in Calm     71% 0 in WeatherDisplay:10.37 W/m2 CLR
19:13 68.2 °F 58.3 °F 29.9 in Calm     71% 0 in WeatherDisplay:10.37 W/m2 CLR
19:18 68 °F 58.3 °F 29.9 in Calm     71% 0 in WeatherDisplay:10.37 W/m2 CLR
19:23 68 °F 58.3 °F 29.9 in Calm     71% 0 in WeatherDisplay:10.37 W/m2 CLR
19:28 67.8 °F 58.5 °F 29.9 in Calm     72% 0 in WeatherDisplay:10.37 W/m2 CLR
19:33 67.8 °F 58.5 °F 29.9 in Calm     72% 0 in WeatherDisplay:10.37 W/m2 CLR
19:38 67.8 °F 58.5 °F 29.9 in Calm     72% 0 in WeatherDisplay:10.37 W/m2 CLR
19:43 67.8 °F 58.5 °F 29.9 in Calm     72% 0 in WeatherDisplay:10.37 W/m2 CLR
19:48 67.8 °F 58.1 °F 29.9 in Calm     71% 0 in WeatherDisplay:10.37 W/m2 CLR
19:53 67.8 °F 58.8 °F 29.9 in Calm     73% 0 in WeatherDisplay:10.37 W/m2 CLR
19:58 67.8 °F 58.5 °F 29.9 in Calm     72% 0 in WeatherDisplay:10.37 W/m2 CLR
20:03 67.6 °F 58.3 °F 29.9 in Calm     72% 0 in WeatherDisplay:10.37 W/m2 CLR
20:08 67.6 °F 58.6 °F 29.9 in Calm     73% 0 in WeatherDisplay:10.37 W/m2 CLR
20:13 67.5 °F 58.5 °F 29.9 in Calm     73% 0 in WeatherDisplay:10.37 W/m2 CLR
20:18 67.5 °F 58.5 °F 29.9 in Calm     73% 0 in WeatherDisplay:10.37 W/m2 CLR
20:23 67.3 °F 58.3 °F 29.9 in Calm     73% 0 in WeatherDisplay:10.37 W/m2 CLR
20:28 67.3 °F 58.3 °F 29.9 in Calm     73% 0 in WeatherDisplay:10.37 W/m2 CLR
Indianola, WA, USA
Compliments of Weather Underground - 2.75 mb